Time;durP1;ratioP1;P1;durP2;ratioP2;P2;SDS_P1;SDS_P2;PMS_P1;PMS_P2;Temp;Humidity;BMP_temperature;BMP_pressure;BME280_temperature;BME280_humidity;BME280_pressure;Samples;Min_cycle;Max_cycle;Signal;HPM_P1;HPM_P2
2020/12/16 00:01:53;;;;;;;18.30;13.10;;;8.80;99.90;;;;;;5010393;28;20196;-44
2020/12/16 00:04:19;;;;;;;17.90;13.07;;;8.80;99.90;;;;;;5020274;28;20269;-54
2020/12/16 00:06:45;;;;;;;19.60;13.37;;;8.80;99.90;;;;;;5022525;28;20176;-45
2020/12/16 00:09:10;;;;;;;18.80;13.07;;;8.80;99.90;;;;;;5015499;28;20546;-51
2020/12/16 00:11:36;;;;;;;20.20;12.93;;;8.80;99.90;;;;;;4993831;28;20208;-48
2020/12/16 00:14:01;;;;;;;18.83;12.63;;;8.80;99.90;;;;;;5007324;28;20261;-46
2020/12/16 00:16:27;;;;;;;21.10;13.73;;;8.80;99.90;;;;;;5005032;28;20172;-46
2020/12/16 00:18:52;;;;;;;20.97;13.50;;;8.80;99.90;;;;;;5011788;28;20260;-45
2020/12/16 00:21:22;;;;;;;19.27;12.70;;;8.80;99.90;;;;;;5015450;28;20184;-52
2020/12/16 00:23:47;;;;;;;20.07;13.10;;;8.80;99.90;;;;;;5026554;28;20202;-44
2020/12/16 00:26:13;;;;;;;20.53;14.37;;;8.80;99.90;;;;;;5008479;28;20181;-50
2020/12/16 00:28:41;;;;;;;15.90;11.93;;;8.80;99.90;;;;;;5003641;28;20248;-48
2020/12/16 00:31:06;;;;;;;19.63;13.53;;;8.80;99.90;;;;;;5009665;28;20191;-53
2020/12/16 00:33:33;;;;;;;19.93;13.87;;;8.80;99.90;;;;;;5004521;28;20200;-48
2020/12/16 00:35:59;;;;;;;22.93;13.37;;;8.70;99.90;;;;;;5014450;28;20185;-49
2020/12/16 00:38:24;;;;;;;20.97;14.63;;;8.70;99.90;;;;;;5006943;28;20301;-53
2020/12/16 00:40:50;;;;;;;20.77;14.40;;;8.70;99.90;;;;;;5024886;28;20187;-45
2020/12/16 00:43:15;;;;;;;22.10;13.17;;;8.70;99.90;;;;;;4984668;28;20224;-49
2020/12/16 00:45:40;;;;;;;22.73;14.43;;;8.70;99.90;;;;;;4999615;28;20175;-46
2020/12/16 00:48:06;;;;;;;22.50;13.77;;;8.70;99.90;;;;;;5009275;28;20700;-53
2020/12/16 00:50:31;;;;;;;22.17;13.90;;;8.70;99.90;;;;;;5016521;28;20263;-50
2020/12/16 00:52:57;;;;;;;23.20;13.83;;;8.70;99.90;;;;;;5006731;28;20238;-44
2020/12/16 00:55:22;;;;;;;28.10;14.23;;;8.70;99.90;;;;;;5003616;28;20200;-56
2020/12/16 00:57:48;;;;;;;24.37;14.63;;;8.70;99.90;;;;;;5006608;28;20542;-45
2020/12/16 01:00:15;;;;;;;24.63;14.73;;;8.80;99.90;;;;;;4990028;28;20196;-55
2020/12/16 01:02:42;;;;;;;25.27;13.87;;;8.80;99.90;;;;;;4998107;28;20205;-46
2020/12/16 01:05:07;;;;;;;21.17;12.87;;;8.80;99.90;;;;;;5019549;28;20237;-53
2020/12/16 01:07:33;;;;;;;23.80;13.80;;;8.80;99.90;;;;;;5008794;28;20216;-43
2020/12/16 01:09:58;;;;;;;21.73;13.30;;;8.80;99.90;;;;;;5006832;28;20192;-45
2020/12/16 01:12:24;;;;;;;22.27;13.40;;;8.80;99.90;;;;;;5000904;28;20866;-55
2020/12/16 01:14:50;;;;;;;19.43;12.10;;;8.80;99.90;;;;;;4999627;28;20524;-45
2020/12/16 01:17:15;;;;;;;22.30;13.53;;;8.70;99.90;;;;;;5000826;28;20809;-48
2020/12/16 01:19:41;;;;;;;22.03;13.33;;;8.70;99.90;;;;;;5011212;28;20184;-48
2020/12/16 01:22:06;;;;;;;23.93;13.80;;;8.70;99.90;;;;;;5006492;28;20284;-52
2020/12/16 01:24:31;;;;;;;18.57;12.47;;;8.70;99.90;;;;;;5015797;28;20968;-48
2020/12/16 01:26:57;;;;;;;20.37;13.60;;;8.70;99.90;;;;;;5019232;28;20263;-43
2020/12/16 01:29:22;;;;;;;21.27;13.87;;;8.70;99.90;;;;;;5015454;28;20208;-55
2020/12/16 01:31:49;;;;;;;22.93;14.80;;;8.70;99.90;;;;;;5001263;28;20195;-43
2020/12/16 01:34:19;;;;;;;21.00;13.90;;;8.70;99.90;;;;;;5002099;28;20805;-54
2020/12/16 01:36:45;;;;;;;21.40;13.73;;;8.70;99.90;;;;;;5003890;28;20212;-45
2020/12/16 01:39:12;;;;;;;22.53;13.27;;;8.70;99.90;;;;;;5010775;28;20294;-54
2020/12/16 01:41:46;;;;;;;26.77;14.00;;;8.70;99.90;;;;;;5011039;28;20176;-43
2020/12/16 01:44:22;;;;;;;20.60;13.53;;;8.70;99.90;;;;;;5005163;28;20201;-51
2020/12/16 01:46:52;;;;;;;24.13;14.87;;;8.70;99.90;;;;;;4987310;28;20564;-44
2020/12/16 01:49:19;;;;;;;26.13;15.20;;;8.70;99.90;;;;;;5001800;28;20189;-53
2020/12/16 01:51:45;;;;;;;24.87;14.43;;;8.70;99.90;;;;;;5004471;28;20234;-45
2020/12/16 01:54:15;;;;;;;21.97;13.30;;;8.70;99.90;;;;;;5012635;28;20215;-51
2020/12/16 01:56:41;;;;;;;24.30;14.73;;;8.70;99.90;;;;;;5022022;28;20812;-43
2020/12/16 01:59:14;;;;;;;23.40;14.13;;;8.70;99.90;;;;;;5005856;28;20215;-52
2020/12/16 02:01:42;;;;;;;20.47;13.87;;;8.70;99.90;;;;;;4988774;28;20227;-48
2020/12/16 02:04:11;;;;;;;22.87;14.43;;;8.70;99.90;;;;;;5009537;28;20207;-54
2020/12/16 02:06:38;;;;;;;22.47;13.77;;;8.70;99.90;;;;;;5000291;28;20264;-46
2020/12/16 02:09:06;;;;;;;24.53;14.43;;;8.70;99.90;;;;;;5025086;28;20188;-47
2020/12/16 02:11:33;;;;;;;27.60;15.00;;;8.70;99.90;;;;;;5013884;28;20173;-43
2020/12/16 02:14:00;;;;;;;23.97;14.13;;;8.70;99.90;;;;;;5004971;28;20219;-43
2020/12/16 02:16:27;;;;;;;26.00;14.87;;;8.70;99.90;;;;;;4999188;28;20878;-55
2020/12/16 02:18:52;;;;;;;21.20;14.57;;;8.70;99.90;;;;;;4995209;28;20212;-45
2020/12/16 02:21:18;;;;;;;22.10;14.27;;;8.70;99.90;;;;;;5014539;28;20233;-52
2020/12/16 02:23:46;;;;;;;20.83;12.63;;;8.70;99.90;;;;;;5021781;28;20900;-43
2020/12/16 02:26:13;;;;;;;21.97;13.47;;;8.70;99.90;;;;;;5006140;28;20697;-52
2020/12/16 02:28:39;;;;;;;23.77;14.77;;;8.70;99.90;;;;;;5020382;28;20215;-45
2020/12/16 02:31:04;;;;;;;26.07;14.70;;;8.60;99.90;;;;;;5019694;28;20184;-46
2020/12/16 02:33:30;;;;;;;26.27;14.47;;;8.70;99.90;;;;;;4989432;28;20825;-45
2020/12/16 02:35:55;;;;;;;27.27;14.87;;;8.70;99.90;;;;;;5000829;28;20196;-43
2020/12/16 02:38:21;;;;;;;27.47;14.50;;;8.60;99.90;;;;;;5015618;28;20212;-53
2020/12/16 02:40:46;;;;;;;25.97;13.60;;;8.60;99.90;;;;;;5016645;28;20534;-46
2020/12/16 02:43:12;;;;;;;19.77;12.67;;;8.60;99.90;;;;;;4999074;28;20177;-52
2020/12/16 02:45:37;;;;;;;24.20;13.40;;;8.60;99.90;;;;;;5002666;28;20168;-47
2020/12/16 02:48:02;;;;;;;22.73;13.27;;;8.60;99.90;;;;;;4991169;28;20553;-44
2020/12/16 02:50:28;;;;;;;22.57;13.13;;;8.60;99.90;;;;;;5007024;28;20181;-46
2020/12/16 02:52:53;;;;;;;23.03;13.80;;;8.60;99.90;;;;;;5004296;28;20280;-48
2020/12/16 02:55:19;;;;;;;24.63;14.67;;;8.60;99.90;;;;;;5002152;28;20209;-51
2020/12/16 02:57:44;;;;;;;26.60;14.93;;;8.60;99.90;;;;;;5015929;28;20211;-48
2020/12/16 03:00:10;;;;;;;22.87;13.60;;;8.60;99.90;;;;;;5010319;28;20741;-54
2020/12/16 03:02:35;;;;;;;21.13;12.73;;;8.60;99.90;;;;;;5015960;28;20185;-46
2020/12/16 03:05:01;;;;;;;20.97;13.07;;;8.60;99.90;;;;;;4993625;28;20208;-46
2020/12/16 03:07:26;;;;;;;23.27;13.77;;;8.60;99.90;;;;;;5017889;28;20901;-43
2020/12/16 03:09:51;;;;;;;26.40;14.57;;;8.60;99.90;;;;;;5007243;28;20180;-43
2020/12/16 03:12:17;;;;;;;26.53;14.40;;;8.50;99.90;;;;;;4999272;28;20211;-49
2020/12/16 03:14:43;;;;;;;24.33;13.60;;;8.50;99.90;;;;;;5006606;28;20200;-43
2020/12/16 03:17:08;;;;;;;22.87;13.73;;;8.60;99.90;;;;;;5017130;28;20192;-54
2020/12/16 03:19:34;;;;;;;25.70;14.13;;;8.60;99.90;;;;;;4983783;28;20208;-45
2020/12/16 03:21:59;;;;;;;25.93;13.47;;;8.60;99.90;;;;;;4992808;28;20263;-44
2020/12/16 03:24:25;;;;;;;31.07;15.60;;;8.60;99.90;;;;;;5013350;28;20226;-53
2020/12/16 03:26:50;;;;;;;24.13;13.07;;;8.60;99.90;;;;;;5019830;28;20203;-43
2020/12/16 03:29:16;;;;;;;25.53;13.27;;;8.60;99.90;;;;;;5019100;28;20198;-53
2020/12/16 03:31:41;;;;;;;28.10;13.27;;;8.50;99.90;;;;;;5002233;28;20180;-44
2020/12/16 03:34:07;;;;;;;26.20;13.27;;;8.50;99.90;;;;;;5015120;28;20561;-51
2020/12/16 03:36:34;;;;;;;25.20;13.30;;;8.50;99.90;;;;;;4979943;28;20200;-43
2020/12/16 03:38:59;;;;;;;23.40;13.10;;;8.50;99.90;;;;;;5014508;28;20207;-46
2020/12/16 03:41:25;;;;;;;25.80;12.63;;;8.50;99.90;;;;;;5014086;28;20195;-52
2020/12/16 03:43:51;;;;;;;23.13;12.57;;;8.50;99.90;;;;;;5009382;28;20205;-43
2020/12/16 03:46:17;;;;;;;27.33;13.90;;;8.50;99.90;;;;;;5003715;28;20177;-52
2020/12/16 03:48:43;;;;;;;23.77;12.90;;;8.50;99.90;;;;;;5014775;28;20243;-45
2020/12/16 03:51:11;;;;;;;22.30;12.97;;;8.50;99.90;;;;;;4989179;28;20200;-52
2020/12/16 03:53:38;;;;;;;23.13;11.93;;;8.50;99.90;;;;;;4996081;28;20196;-43
2020/12/16 03:56:08;;;;;;;21.97;11.87;;;8.50;99.90;;;;;;5003990;28;20215;-47
2020/12/16 03:58:33;;;;;;;23.33;12.07;;;8.50;99.90;;;;;;5000588;28;20208;-49
2020/12/16 04:01:07;;;;;;;26.90;12.73;;;8.50;99.90;;;;;;5010974;28;20179;-43
2020/12/16 04:03:32;;;;;;;24.33;13.53;;;8.50;99.90;;;;;;5011675;28;20302;-45
2020/12/16 04:05:58;;;;;;;21.40;12.67;;;8.40;99.90;;;;;;4994998;28;20684;-43
2020/12/16 04:08:24;;;;;;;23.37;12.47;;;8.50;99.90;;;;;;4997846;28;20178;-53
2020/12/16 04:10:49;;;;;;;19.83;12.47;;;8.50;99.90;;;;;;5016130;28;20693;-43
2020/12/16 04:13:15;;;;;;;21.30;12.37;;;8.40;99.90;;;;;;4999983;28;20191;-53
2020/12/16 04:15:44;;;;;;;21.03;12.43;;;8.50;99.90;;;;;;4996785;28;20294;-48
2020/12/16 04:18:10;;;;;;;18.83;11.77;;;8.50;99.90;;;;;;5021705;28;20207;-52
2020/12/16 04:20:36;;;;;;;22.47;12.97;;;8.50;99.90;;;;;;5019833;28;20757;-43
2020/12/16 04:23:01;;;;;;;20.83;11.47;;;8.40;99.90;;;;;;4993040;28;20652;-51
2020/12/16 04:25:27;;;;;;;23.97;13.13;;;8.40;99.90;;;;;;5008614;28;20204;-43
2020/12/16 04:27:52;;;;;;;25.53;14.43;;;8.50;99.90;;;;;;4996886;28;20661;-48
2020/12/16 04:30:18;;;;;;;24.63;12.77;;;8.50;99.90;;;;;;5019763;28;20261;-52
2020/12/16 04:32:44;;;;;;;19.40;11.87;;;8.50;99.90;;;;;;5009944;28;20214;-45
2020/12/16 04:35:09;;;;;;;26.37;13.40;;;8.50;99.90;;;;;;5010658;28;20819;-53
2020/12/16 04:37:35;;;;;;;23.00;12.93;;;8.50;99.90;;;;;;4992339;28;20874;-45
2020/12/16 04:40:01;;;;;;;22.37;11.93;;;8.50;99.90;;;;;;4999896;28;20620;-45
2020/12/16 04:42:26;;;;;;;24.10;12.67;;;8.50;99.90;;;;;;5007324;28;20224;-45
2020/12/16 04:44:53;;;;;;;25.37;13.33;;;8.50;99.90;;;;;;5002297;28;20208;-44
2020/12/16 04:47:18;;;;;;;25.40;13.97;;;8.50;99.90;;;;;;5001463;28;20652;-52
2020/12/16 04:49:44;;;;;;;28.10;14.70;;;8.50;99.90;;;;;;5006893;28;20180;-43
2020/12/16 04:52:10;;;;;;;27.40;14.13;;;8.50;99.90;;;;;;5004970;28;20185;-54
2020/12/16 04:54:36;;;;;;;24.37;13.27;;;8.40;99.90;;;;;;4996891;28;20200;-47
2020/12/16 04:57:06;;;;;;;28.60;14.57;;;8.40;99.90;;;;;;5004114;28;20660;-46
2020/12/16 04:59:32;;;;;;;26.77;14.50;;;8.50;99.90;;;;;;4998577;28;20300;-49
2020/12/16 05:01:57;;;;;;;34.27;15.60;;;8.40;99.90;;;;;;4998869;28;20347;-45
2020/12/16 05:04:23;;;;;;;31.93;16.60;;;8.50;99.90;;;;;;5003921;28;20685;-43
2020/12/16 05:06:48;;;;;;;25.20;12.90;;;8.50;99.90;;;;;;5006904;28;20181;-52
2020/12/16 05:09:15;;;;;;;25.30;13.83;;;8.50;99.90;;;;;;4995727;28;20892;-50
2020/12/16 05:11:50;;;;;;;29.30;13.70;;;8.50;99.90;;;;;;5003096;28;20189;-51
2020/12/16 05:14:17;;;;;;;25.87;13.70;;;8.50;99.90;;;;;;4998071;28;20195;-43
2020/12/16 05:16:57;;;;;;;25.33;14.30;;;8.50;99.90;;;;;;5013887;28;20180;-54
2020/12/16 05:19:38;;;;;;;29.27;13.77;;;8.40;99.90;;;;;;5025848;28;20333;-43
2020/12/16 05:22:31;;;;;;;24.50;13.93;;;8.50;99.90;;;;;;4997724;28;20171;-48
2020/12/16 05:24:59;;;;;;;28.90;14.10;;;8.40;99.90;;;;;;4986079;28;20204;-53
2020/12/16 05:27:29;;;;;;;29.03;14.10;;;8.40;99.90;;;;;;5011448;28;20552;-47
2020/12/16 05:30:06;;;;;;;26.53;13.97;;;8.40;99.90;;;;;;5003149;28;20227;-54
2020/12/16 05:32:37;;;;;;;23.17;12.00;;;8.40;99.90;;;;;;5005629;28;20275;-43
2020/12/16 05:35:25;;;;;;;22.83;12.60;;;8.40;99.90;;;;;;4988969;28;20390;-48
2020/12/16 05:37:58;;;;;;;25.27;13.20;;;8.40;99.90;;;;;;5004135;28;20246;-51
2020/12/16 05:40:23;;;;;;;22.67;12.83;;;8.40;99.90;;;;;;4996297;28;20204;-44
2020/12/16 05:42:50;;;;;;;21.90;12.30;;;8.40;99.90;;;;;;5013245;28;20542;-49
2020/12/16 05:45:24;;;;;;;23.50;12.67;;;8.40;99.90;;;;;;5019063;28;20997;-42
2020/12/16 05:47:56;;;;;;;21.00;11.83;;;8.40;99.90;;;;;;5002872;28;20609;-54
2020/12/16 05:50:22;;;;;;;25.47;12.97;;;8.40;99.90;;;;;;5012783;28;20185;-42
2020/12/16 05:52:47;;;;;;;30.07;13.80;;;8.40;99.90;;;;;;5007067;28;20608;-51
2020/12/16 05:55:26;;;;;;;22.93;12.17;;;8.40;99.90;;;;;;4984083;28;20888;-45
2020/12/16 05:58:10;;;;;;;23.03;12.17;;;8.40;99.90;;;;;;5006289;28;20201;-55
2020/12/16 06:01:01;;;;;;;22.57;11.70;;;8.40;99.90;;;;;;4999792;28;20720;-42
2020/12/16 06:03:29;;;;;;;22.97;12.83;;;8.30;99.90;;;;;;5004518;28;20686;-45
2020/12/16 06:06:00;;;;;;;22.27;12.20;;;8.30;99.90;;;;;;5001114;28;20346;-54
2020/12/16 06:08:40;;;;;;;22.83;12.50;;;8.30;99.90;;;;;;5004560;28;20181;-48
2020/12/16 06:11:07;;;;;;;22.67;11.67;;;8.30;99.90;;;;;;4990005;28;20230;-42
2020/12/16 06:13:33;;;;;;;24.73;12.37;;;8.30;99.90;;;;;;5002335;28;20209;-43
2020/12/16 06:16:04;;;;;;;22.30;12.30;;;8.30;99.90;;;;;;4994124;28;20224;-42
2020/12/16 06:18:37;;;;;;;30.37;12.73;;;8.30;99.90;;;;;;5023582;28;20643;-53
2020/12/16 06:21:03;;;;;;;27.70;13.03;;;8.30;99.90;;;;;;5022949;28;20386;-44
2020/12/16 06:23:31;;;;;;;22.43;12.27;;;8.30;99.90;;;;;;5010804;28;20804;-53
2020/12/16 06:25:58;;;;;;;24.83;13.47;;;8.30;99.90;;;;;;4990761;28;20204;-44
2020/12/16 06:28:24;;;;;;;21.77;12.90;;;8.30;99.90;;;;;;4997887;28;20238;-50
2020/12/16 06:30:54;;;;;;;26.37;13.70;;;8.30;99.90;;;;;;5001034;28;20177;-47
2020/12/16 06:33:41;;;;;;;23.77;13.43;;;8.30;99.90;;;;;;5006364;28;20208;-48
2020/12/16 06:36:09;;;;;;;27.97;13.50;;;8.30;99.90;;;;;;5004805;28;20247;-42
2020/12/16 06:38:49;;;;;;;24.13;13.57;;;8.30;99.90;;;;;;5002573;28;20204;-54
2020/12/16 06:41:24;;;;;;;35.30;19.07;;;8.30;99.90;;;;;;5023963;28;20214;-42
2020/12/16 06:43:51;;;;;;;35.37;17.67;;;8.30;99.90;;;;;;4985320;28;20828;-47
2020/12/16 06:46:32;;;;;;;28.00;14.20;;;8.30;99.90;;;;;;5013557;28;20180;-42
2020/12/16 06:49:03;;;;;;;28.37;13.97;;;8.30;99.90;;;;;;5005566;28;20885;-45
2020/12/16 06:51:35;;;;;;;26.63;13.70;;;8.30;99.90;;;;;;5012849;28;20262;-53
2020/12/16 06:54:09;;;;;;;30.37;14.83;;;8.30;99.90;;;;;;5005013;28;20204;-42
2020/12/16 06:56:34;;;;;;;28.73;14.53;;;8.30;99.90;;;;;;4995301;28;20261;-51
2020/12/16 06:59:00;;;;;;;27.93;13.33;;;8.30;99.90;;;;;;4992580;28;20893;-43
2020/12/16 07:01:26;;;;;;;26.73;13.10;;;8.30;99.90;;;;;;5004086;28;20184;-53
2020/12/16 07:03:52;;;;;;;32.03;14.73;;;8.20;99.90;;;;;;4987263;28;20880;-43
2020/12/16 07:06:29;;;;;;;30.97;15.80;;;8.20;99.90;;;;;;5020665;28;20183;-41
2020/12/16 07:09:13;;;;;;;24.37;14.60;;;8.20;99.90;;;;;;5012271;28;20657;-48
2020/12/16 07:11:49;;;;;;;27.30;14.50;;;8.20;99.90;;;;;;4990805;28;20199;-52
2020/12/16 07:14:17;;;;;;;27.53;14.30;;;8.20;99.90;;;;;;5007668;28;20207;-43
2020/12/16 07:16:43;;;;;;;31.00;15.20;;;8.20;99.90;;;;;;5020226;28;20652;-53
2020/12/16 07:19:09;;;;;;;29.33;15.53;;;8.20;99.90;;;;;;5006785;28;20251;-43
2020/12/16 07:21:38;;;;;;;30.73;16.20;;;8.20;99.90;;;;;;5002944;28;20200;-53
2020/12/16 07:24:14;;;;;;;33.03;17.00;;;8.20;99.90;;;;;;4999166;28;21004;-45
2020/12/16 07:26:48;;;;;;;39.53;17.43;;;8.20;99.90;;;;;;5020925;28;20187;-52
2020/12/16 07:29:30;;;;;;;35.33;18.77;;;8.30;99.90;;;;;;4981763;28;20681;-42
2020/12/16 07:32:04;;;;;;;37.63;18.77;;;8.20;99.90;;;;;;5008612;28;20191;-43
2020/12/16 07:34:32;;;;;;;41.97;19.33;;;8.30;99.90;;;;;;4996424;28;20274;-49
2020/12/16 07:37:04;;;;;;;38.23;19.10;;;8.30;99.90;;;;;;5002646;28;20264;-44
2020/12/16 07:39:30;;;;;;;38.27;18.60;;;8.30;99.90;;;;;;5003607;28;20682;-54
2020/12/16 07:41:57;;;;;;;36.90;18.87;;;8.30;99.90;;;;;;5008975;28;20227;-42
2020/12/16 07:44:23;;;;;;;43.87;21.13;;;8.30;99.90;;;;;;4997026;28;20205;-43
2020/12/16 07:46:50;;;;;;;46.13;19.43;;;8.30;99.90;;;;;;4991033;28;20231;-45
2020/12/16 07:49:20;;;;;;;41.87;19.63;;;8.30;99.90;;;;;;5002697;28;20260;-45
2020/12/16 07:51:46;;;;;;;42.20;19.83;;;8.30;99.90;;;;;;4993130;28;20551;-45
2020/12/16 07:54:11;;;;;;;42.30;19.57;;;8.30;99.90;;;;;;4988148;28;20224;-42
2020/12/16 07:56:37;;;;;;;40.73;19.53;;;8.40;99.90;;;;;;5007431;28;20192;-53
2020/12/16 07:59:13;;;;;;;34.90;19.07;;;8.40;99.90;;;;;;4976075;28;20789;-42
2020/12/16 08:01:39;;;;;;;38.90;19.30;;;8.40;99.90;;;;;;4993045;28;20515;-52
2020/12/16 08:04:05;;;;;;;44.37;20.10;;;8.40;99.90;;;;;;5003653;28;20210;-47
2020/12/16 08:06:31;;;;;;;41.50;20.97;;;8.40;99.90;;;;;;4996346;28;20192;-43
2020/12/16 08:08:56;;;;;;;45.37;20.80;;;8.40;99.90;;;;;;5000189;28;20234;-46
2020/12/16 08:11:27;;;;;;;38.87;18.90;;;8.40;99.90;;;;;;4998826;28;20193;-47
2020/12/16 08:14:08;;;;;;;46.67;22.07;;;8.40;99.90;;;;;;4982491;28;20901;-48
2020/12/16 08:16:34;;;;;;;43.87;20.90;;;8.40;99.90;;;;;;4997435;28;20595;-52
2020/12/16 08:19:01;;;;;;;44.80;20.50;;;8.40;99.90;;;;;;5000628;28;20208;-42
2020/12/16 08:21:27;;;;;;;48.47;21.80;;;8.40;99.90;;;;;;5003717;28;20189;-46
2020/12/16 08:23:54;;;;;;;44.30;21.77;;;8.40;99.90;;;;;;4994353;28;20627;-51
2020/12/16 08:26:22;;;;;;;42.63;20.23;;;8.40;99.90;;;;;;5005436;28;20173;-44
2020/12/16 08:28:48;;;;;;;42.23;20.37;;;8.40;99.90;;;;;;4992034;28;20194;-55
2020/12/16 08:31:18;;;;;;;39.73;19.60;;;8.40;99.90;;;;;;4989298;28;20195;-43
2020/12/16 08:33:46;;;;;;;43.97;20.63;;;8.30;99.90;;;;;;4998285;28;20201;-53
2020/12/16 08:36:17;;;;;;;40.90;20.43;;;8.40;99.90;;;;;;5008014;28;20227;-47
2020/12/16 08:38:43;;;;;;;35.30;19.00;;;8.30;99.90;;;;;;4999856;28;20284;-53
2020/12/16 08:41:14;;;;;;;38.50;19.00;;;8.40;99.90;;;;;;5014187;28;20180;-45
2020/12/16 08:43:43;;;;;;;39.60;18.43;;;8.30;99.90;;;;;;5013953;28;20220;-53
2020/12/16 08:46:11;;;;;;;35.40;18.77;;;8.30;99.90;;;;;;4982852;28;20181;-47
2020/12/16 08:48:40;;;;;;;36.53;18.30;;;8.30;99.90;;;;;;5003169;28;20646;-45
2020/12/16 08:51:07;;;;;;;36.13;17.77;;;8.30;99.90;;;;;;5009622;28;20277;-50
2020/12/16 08:53:51;;;;;;;36.03;18.73;;;8.30;99.90;;;;;;5016586;28;20207;-52
2020/12/16 08:56:42;;;;;;;33.37;17.47;;;8.30;99.90;;;;;;5025639;28;20180;-46
2020/12/16 08:59:15;;;;;;;35.10;19.07;;;8.30;99.90;;;;;;5006403;28;20227;-44
2020/12/16 09:01:46;;;;;;;36.13;17.83;;;8.30;99.90;;;;;;4981725;28;20197;-49
2020/12/16 09:04:24;;;;;;;38.10;17.33;;;8.20;99.90;;;;;;4995677;28;20212;-43
2020/12/16 09:07:07;;;;;;;29.07;16.63;;;8.20;99.90;;;;;;5005392;28;20191;-46
2020/12/16 09:09:37;;;;;;;34.87;17.57;;;8.20;99.90;;;;;;4997132;28;20192;-50
2020/12/16 09:12:09;;;;;;;37.10;18.27;;;8.20;99.90;;;;;;5016934;28;20200;-43
2020/12/16 09:14:35;;;;;;;29.17;15.13;;;8.10;99.90;;;;;;4995460;28;20622;-50
2020/12/16 09:17:06;;;;;;;33.43;17.10;;;8.10;99.90;;;;;;4984057;28;20280;-40
2020/12/16 09:19:34;;;;;;;31.07;16.80;;;8.10;99.90;;;;;;5002385;28;20207;-52
2020/12/16 09:22:00;;;;;;;35.47;17.37;;;8.00;99.90;;;;;;4999947;28;20898;-46
2020/12/16 09:24:26;;;;;;;33.13;16.70;;;8.00;99.90;;;;;;5010118;28;20607;-50
2020/12/16 09:26:54;;;;;;;31.33;16.10;;;8.10;99.90;;;;;;4994192;28;20204;-46
2020/12/16 09:29:24;;;;;;;27.93;14.63;;;8.00;99.90;;;;;;4997880;28;20203;-42
2020/12/16 09:32:12;;;;;;;30.00;15.80;;;8.00;99.90;;;;;;4990351;28;20204;-47
2020/12/16 09:34:40;;;;;;;30.30;15.03;;;8.00;99.90;;;;;;4999224;28;20212;-50
2020/12/16 09:37:32;;;;;;;29.23;16.03;;;8.00;99.90;;;;;;5000398;28;20180;-41
2020/12/16 09:40:12;;;;;;;28.77;14.20;;;8.00;99.90;;;;;;4996685;28;20197;-42
2020/12/16 09:42:38;;;;;;;26.67;14.03;;;8.00;99.90;;;;;;4999872;28;20188;-49
2020/12/16 09:45:15;;;;;;;25.20;13.90;;;8.00;99.90;;;;;;5003377;28;20211;-45
2020/12/16 09:47:45;;;;;;;27.93;14.13;;;7.90;99.90;;;;;;4988788;28;20195;-52
2020/12/16 09:50:11;;;;;;;23.97;14.20;;;7.90;99.90;;;;;;5013387;28;20183;-45
2020/12/16 09:52:38;;;;;;;30.00;14.07;;;7.80;99.90;;;;;;4997324;28;20181;-51
2020/12/16 09:55:20;;;;;;;26.63;14.13;;;7.90;99.90;;;;;;5014118;28;20203;-42
2020/12/16 09:58:06;;;;;;;30.43;14.87;;;7.80;99.90;;;;;;4994685;28;20649;-43
2020/12/16 10:00:33;;;;;;;29.60;14.20;;;7.70;99.90;;;;;;4996613;28;20271;-50
2020/12/16 10:03:04;;;;;;;25.17;14.10;;;7.70;99.90;;;;;;5002472;28;20229;-44
2020/12/16 10:05:32;;;;;;;29.70;15.07;;;7.70;99.90;;;;;;5005864;28;20170;-49
2020/12/16 10:07:57;;;;;;;27.33;13.57;;;7.70;99.90;;;;;;5006762;28;20177;-43
2020/12/16 10:10:23;;;;;;;32.40;15.60;;;7.70;99.90;;;;;;5004522;28;20207;-44
2020/12/16 10:12:49;;;;;;;28.43;15.17;;;7.70;99.90;;;;;;5006699;28;20279;-46
2020/12/16 10:15:15;;;;;;;28.33;14.90;;;7.60;99.90;;;;;;5005929;28;20699;-41
2020/12/16 10:17:40;;;;;;;33.37;15.23;;;7.70;99.90;;;;;;4996623;28;20326;-49
2020/12/16 10:20:07;;;;;;;29.40;14.60;;;7.60;99.90;;;;;;5006541;28;20184;-41
2020/12/16 10:22:34;;;;;;;32.37;15.17;;;7.70;99.90;;;;;;5010962;28;20239;-49
2020/12/16 10:25:00;;;;;;;29.30;14.27;;;7.70;99.90;;;;;;4994751;28;20209;-45
2020/12/16 10:27:28;;;;;;;32.47;15.33;;;7.60;99.90;;;;;;5005296;28;20184;-47
2020/12/16 10:29:55;;;;;;;31.63;14.60;;;7.60;99.90;;;;;;4998595;28;20201;-44
2020/12/16 10:32:20;;;;;;;33.03;16.03;;;7.70;99.90;;;;;;5001220;28;20284;-46
2020/12/16 10:34:46;;;;;;;32.40;14.87;;;7.70;99.90;;;;;;4979664;28;20721;-43
2020/12/16 10:37:12;;;;;;;31.33;14.90;;;7.70;99.90;;;;;;5003835;28;20177;-45
2020/12/16 10:39:37;;;;;;;34.77;16.13;;;7.70;99.90;;;;;;4997618;28;20211;-49
2020/12/16 10:42:03;;;;;;;31.93;16.03;;;7.70;99.90;;;;;;5006336;28;20652;-43
2020/12/16 10:44:28;;;;;;;32.03;16.27;;;7.70;99.90;;;;;;5002391;28;20196;-48
2020/12/16 10:46:54;;;;;;;30.67;14.57;;;7.70;99.90;;;;;;4997523;28;20272;-44
2020/12/16 10:49:22;;;;;;;31.90;15.20;;;7.70;99.90;;;;;;4982429;28;20196;-45
2020/12/16 10:51:48;;;;;;;38.83;17.60;;;7.80;99.90;;;;;;5011445;28;20245;-41
2020/12/16 10:54:13;;;;;;;35.23;16.13;;;7.70;99.90;;;;;;5010224;28;20216;-41
2020/12/16 10:56:39;;;;;;;33.30;15.93;;;7.80;99.90;;;;;;5007391;28;20192;-49
2020/12/16 10:59:05;;;;;;;37.37;16.50;;;7.80;99.90;;;;;;5002145;28;20208;-41
2020/12/16 11:01:37;;;;;;;35.33;16.40;;;7.80;99.90;;;;;;5003183;28;20180;-50
2020/12/16 11:04:07;;;;;;;32.20;16.27;;;7.90;99.90;;;;;;4981918;28;20205;-44
2020/12/16 11:06:38;;;;;;;34.53;16.70;;;7.80;99.90;;;;;;5001248;28;20170;-51
2020/12/16 11:09:04;;;;;;;32.93;16.17;;;7.80;99.90;;;;;;4996974;28;20204;-43
2020/12/16 11:11:30;;;;;;;36.23;15.97;;;7.90;99.90;;;;;;4990392;28;20623;-49
2020/12/16 11:13:56;;;;;;;33.90;16.77;;;7.80;99.90;;;;;;5000700;28;20944;-46
2020/12/16 11:16:28;;;;;;;32.87;16.87;;;7.80;99.90;;;;;;5000551;28;20208;-46
2020/12/16 11:18:54;;;;;;;29.63;15.40;;;7.90;99.90;;;;;;5005756;28;20200;-47
2020/12/16 11:21:19;;;;;;;37.77;17.03;;;7.80;99.90;;;;;;4978809;28;20225;-41
2020/12/16 11:23:45;;;;;;;35.97;16.30;;;7.80;99.90;;;;;;5007768;28;20837;-43
2020/12/16 11:26:10;;;;;;;39.13;17.73;;;7.90;99.90;;;;;;5010905;28;20290;-42
2020/12/16 11:28:36;;;;;;;40.10;18.23;;;7.90;99.90;;;;;;5003424;28;20200;-48
2020/12/16 11:31:01;;;;;;;43.87;17.63;;;7.90;99.90;;;;;;5000445;28;20216;-44
2020/12/16 11:33:28;;;;;;;38.83;17.37;;;7.90;99.90;;;;;;5000289;28;20200;-48
2020/12/16 11:35:53;;;;;;;38.90;17.57;;;7.90;99.90;;;;;;4985590;28;20208;-46
2020/12/16 11:38:19;;;;;;;38.07;17.87;;;7.90;99.90;;;;;;5007840;28;20212;-47
2020/12/16 11:40:44;;;;;;;42.87;18.23;;;7.90;99.90;;;;;;5000787;28;20318;-43
2020/12/16 11:43:10;;;;;;;38.73;17.73;;;7.90;99.90;;;;;;5001226;28;20590;-40
2020/12/16 11:45:35;;;;;;;45.23;20.30;;;7.90;99.90;;;;;;5007830;28;20272;-50
2020/12/16 11:48:01;;;;;;;47.77;21.27;;;8.00;99.90;;;;;;4999354;28;20185;-42
2020/12/16 11:50:27;;;;;;;52.23;21.23;;;8.00;99.90;;;;;;5003443;28;20642;-47
2020/12/16 11:52:52;;;;;;;49.77;21.37;;;8.00;99.90;;;;;;4987827;28;20191;-41
2020/12/16 11:55:18;;;;;;;50.13;20.57;;;8.10;99.90;;;;;;5012143;28;20258;-42
2020/12/16 11:57:43;;;;;;;49.73;21.60;;;8.00;99.90;;;;;;4995730;28;20185;-52
2020/12/16 12:00:09;;;;;;;54.23;21.17;;;8.00;99.90;;;;;;4994111;28;20268;-40
2020/12/16 12:02:35;;;;;;;50.03;20.23;;;8.00;99.90;;;;;;4995923;28;20203;-51
2020/12/16 12:05:02;;;;;;;49.23;19.77;;;8.00;99.90;;;;;;4998467;28;20255;-42
2020/12/16 12:07:28;;;;;;;44.67;20.37;;;7.90;99.90;;;;;;4982801;28;20254;-50
2020/12/16 12:09:53;;;;;;;47.67;18.90;;;7.90;99.90;;;;;;4995350;28;20764;-43
2020/12/16 12:12:19;;;;;;;57.43;20.33;;;7.90;99.90;;;;;;5003877;28;20207;-41
2020/12/16 12:14:44;;;;;;;46.40;19.23;;;8.00;99.90;;;;;;4996200;28;21024;-45
2020/12/16 12:17:10;;;;;;;50.63;20.20;;;8.00;99.90;;;;;;5003663;28;20196;-40
2020/12/16 12:19:40;;;;;;;42.73;18.37;;;7.90;99.90;;;;;;4993659;28;20242;-50
2020/12/16 12:22:07;;;;;;;46.43;19.20;;;7.80;99.90;;;;;;4984762;28;20243;-47
2020/12/16 12:24:32;;;;;;;42.20;18.20;;;7.80;99.90;;;;;;5003796;28;20684;-49
2020/12/16 12:26:58;;;;;;;44.30;18.97;;;7.80;99.90;;;;;;4999912;28;20277;-42
2020/12/16 12:29:23;;;;;;;43.73;18.03;;;7.80;99.90;;;;;;5007810;28;20200;-40
2020/12/16 12:31:49;;;;;;;49.50;19.73;;;7.80;99.90;;;;;;5012160;28;20192;-44
2020/12/16 12:34:14;;;;;;;43.50;17.40;;;7.80;99.90;;;;;;5007146;28;20204;-45
2020/12/16 12:36:40;;;;;;;51.53;20.00;;;7.80;99.90;;;;;;4988759;28;20196;-48
2020/12/16 12:39:05;;;;;;;52.07;20.97;;;7.80;99.90;;;;;;4992866;28;20215;-41
2020/12/16 12:41:31;;;;;;;50.17;20.70;;;7.90;99.90;;;;;;5000602;28;20519;-48